Aviation Digital Data Service (ADDS)

Output produced by METARs form (0347 UTC 27 January 2021)
found at http://www.aviationweather.gov/metar/data/
 
METAR text: KAMW 270253Z AUTO 01008KT 10SM FEW120 M09/M13 A3022 RMK AO2 SLP248 60000 T10941133 51013
Conditions at: KAMW (AMES , IA, US) observed 0253 UTC 27 January 2021
Temperature: -9.4°C (15°F)
Dewpoint: -13.3°C ( 8°F) [RH = 73%]
Pressure (altimeter): 30.22 inches Hg (1023.5 mb)
[Sea-level pressure: 1024.8 mb]
Winds: from the N (10 degrees) at 9 MPH (8 knots; 4.1 m/s)
Visibility: 10 or more miles (16+ km)
Ceiling: at least 12,000 feet AGL
Clouds: few clouds at 12000 feet AGL
Weather: automated observation with no human augmentation;
there may or may not be significant weather present at this time